sensor_id;sensor_type;location;lat;lon;timestamp;P1;durP1;ratioP1;P2;durP2;ratioP2
28910;SDS011;16028;42.642;23.310;2022-12-07T00:01:24;60.67;;;31.17;;
28910;SDS011;16028;42.642;23.310;2022-12-07T00:03:54;57.03;;;29.42;;
28910;SDS011;16028;42.642;23.310;2022-12-07T00:06:28;60.25;;;31.63;;
28910;SDS011;16028;42.642;23.310;2022-12-07T00:08:55;70.35;;;31.20;;
28910;SDS011;16028;42.642;23.310;2022-12-07T00:11:22;52.42;;;29.92;;
28910;SDS011;16028;42.642;23.310;2022-12-07T00:13:51;55.20;;;29.17;;
28910;SDS011;16028;42.642;23.310;2022-12-07T00:16:20;63.90;;;32.25;;
28910;SDS011;16028;42.642;23.310;2022-12-07T00:18:48;74.50;;;31.98;;
28910;SDS011;16028;42.642;23.310;2022-12-07T00:21:17;62.85;;;31.52;;
28910;SDS011;16028;42.642;23.310;2022-12-07T00:23:46;60.50;;;32.38;;
28910;SDS011;16028;42.642;23.310;2022-12-07T00:26:14;60.85;;;32.17;;
28910;SDS011;16028;42.642;23.310;2022-12-07T00:28:44;70.97;;;35.08;;
28910;SDS011;16028;42.642;23.310;2022-12-07T00:31:12;70.18;;;37.20;;
28910;SDS011;16028;42.642;23.310;2022-12-07T00:33:40;72.50;;;35.58;;
28910;SDS011;16028;42.642;23.310;2022-12-07T00:36:08;71.55;;;35.83;;
28910;SDS011;16028;42.642;23.310;2022-12-07T00:38:38;69.95;;;35.05;;
28910;SDS011;16028;42.642;23.310;2022-12-07T00:41:06;76.63;;;39.25;;
28910;SDS011;16028;42.642;23.310;2022-12-07T00:43:36;79.00;;;40.70;;
28910;SDS011;16028;42.642;23.310;2022-12-07T00:46:04;73.65;;;40.58;;
28910;SDS011;16028;42.642;23.310;2022-12-07T00:48:31;75.28;;;39.72;;
28910;SDS011;16028;42.642;23.310;2022-12-07T00:50:58;89.80;;;45.38;;
28910;SDS011;16028;42.642;23.310;2022-12-07T00:53:25;106.78;;;53.05;;
28910;SDS011;16028;42.642;23.310;2022-12-07T00:55:54;91.80;;;47.10;;
28910;SDS011;16028;42.642;23.310;2022-12-07T00:58:21;88.53;;;44.10;;
28910;SDS011;16028;42.642;23.310;2022-12-07T01:00:48;69.85;;;36.58;;
28910;SDS011;16028;42.642;23.310;2022-12-07T01:03:16;65.00;;;33.65;;
28910;SDS011;16028;42.642;23.310;2022-12-07T01:05:53;60.92;;;34.80;;
28910;SDS011;16028;42.642;23.310;2022-12-07T01:08:22;66.32;;;31.25;;
28910;SDS011;16028;42.642;23.310;2022-12-07T01:10:57;68.90;;;33.95;;
28910;SDS011;16028;42.642;23.310;2022-12-07T01:13:26;64.63;;;32.35;;
28910;SDS011;16028;42.642;23.310;2022-12-07T01:15:57;59.45;;;30.27;;
28910;SDS011;16028;42.642;23.310;2022-12-07T01:18:25;68.13;;;33.17;;
28910;SDS011;16028;42.642;23.310;2022-12-07T01:20:59;62.25;;;33.67;;
28910;SDS011;16028;42.642;23.310;2022-12-07T01:23:27;58.28;;;29.75;;
28910;SDS011;16028;42.642;23.310;2022-12-07T01:25:55;61.50;;;31.38;;
28910;SDS011;16028;42.642;23.310;2022-12-07T01:28:24;61.22;;;30.15;;
28910;SDS011;16028;42.642;23.310;2022-12-07T01:30:57;52.80;;;28.30;;
28910;SDS011;16028;42.642;23.310;2022-12-07T01:33:26;59.22;;;27.55;;
28910;SDS011;16028;42.642;23.310;2022-12-07T01:35:53;53.22;;;27.42;;
28910;SDS011;16028;42.642;23.310;2022-12-07T01:38:20;54.45;;;28.27;;
28910;SDS011;16028;42.642;23.310;2022-12-07T01:40:54;54.90;;;26.60;;
28910;SDS011;16028;42.642;23.310;2022-12-07T01:43:21;48.53;;;26.60;;
28910;SDS011;16028;42.642;23.310;2022-12-07T01:45:51;50.00;;;27.13;;
28910;SDS011;16028;42.642;23.310;2022-12-07T01:48:19;49.95;;;26.30;;
28910;SDS011;16028;42.642;23.310;2022-12-07T01:50:50;52.55;;;27.17;;
28910;SDS011;16028;42.642;23.310;2022-12-07T01:53:19;53.47;;;27.10;;
28910;SDS011;16028;42.642;23.310;2022-12-07T01:55:51;55.97;;;27.42;;
28910;SDS011;16028;42.642;23.310;2022-12-07T01:58:19;46.92;;;27.13;;
28910;SDS011;16028;42.642;23.310;2022-12-07T02:00:49;51.58;;;30.10;;
28910;SDS011;16028;42.642;23.310;2022-12-07T02:03:17;53.05;;;30.15;;
28910;SDS011;16028;42.642;23.310;2022-12-07T02:05:48;57.08;;;31.33;;
28910;SDS011;16028;42.642;23.310;2022-12-07T02:08:16;55.45;;;30.70;;
28910;SDS011;16028;42.642;23.310;2022-12-07T02:10:43;58.90;;;32.15;;
28910;SDS011;16028;42.642;23.310;2022-12-07T02:13:11;59.63;;;31.55;;
28910;SDS011;16028;42.642;23.310;2022-12-07T02:18:45;51.58;;;29.17;;
28910;SDS011;16028;42.642;23.310;2022-12-07T02:21:24;60.67;;;29.38;;
28910;SDS011;16028;42.642;23.310;2022-12-07T02:24:18;50.85;;;27.08;;
28910;SDS011;16028;42.642;23.310;2022-12-07T02:27:07;53.53;;;26.75;;
28910;SDS011;16028;42.642;23.310;2022-12-07T02:29:50;47.33;;;26.08;;
28910;SDS011;16028;42.642;23.310;2022-12-07T02:32:24;57.38;;;30.20;;
28910;SDS011;16028;42.642;23.310;2022-12-07T02:34:58;56.67;;;28.37;;
28910;SDS011;16028;42.642;23.310;2022-12-07T02:37:33;47.90;;;26.63;;
28910;SDS011;16028;42.642;23.310;2022-12-07T02:40:05;52.40;;;27.65;;
28910;SDS011;16028;42.642;23.310;2022-12-07T02:42:41;56.22;;;26.45;;
28910;SDS011;16028;42.642;23.310;2022-12-07T02:45:15;50.38;;;27.25;;
28910;SDS011;16028;42.642;23.310;2022-12-07T02:47:46;51.38;;;27.85;;
28910;SDS011;16028;42.642;23.310;2022-12-07T02:50:18;54.63;;;29.65;;
28910;SDS011;16028;42.642;23.310;2022-12-07T02:52:46;60.60;;;31.42;;
28910;SDS011;16028;42.642;23.310;2022-12-07T02:55:13;51.60;;;27.77;;
28910;SDS011;16028;42.642;23.310;2022-12-07T02:57:49;48.28;;;27.83;;
28910;SDS011;16028;42.642;23.310;2022-12-07T03:00:24;49.90;;;26.02;;
28910;SDS011;16028;42.642;23.310;2022-12-07T03:02:53;50.88;;;28.02;;
28910;SDS011;16028;42.642;23.310;2022-12-07T03:08:18;55.67;;;27.67;;
28910;SDS011;16028;42.642;23.310;2022-12-07T03:10:55;56.28;;;26.88;;
28910;SDS011;16028;42.642;23.310;2022-12-07T03:13:25;52.22;;;25.90;;
28910;SDS011;16028;42.642;23.310;2022-12-07T03:15:59;47.10;;;26.55;;
28910;SDS011;16028;42.642;23.310;2022-12-07T03:18:32;50.70;;;26.90;;
28910;SDS011;16028;42.642;23.310;2022-12-07T03:21:05;47.15;;;24.80;;
28910;SDS011;16028;42.642;23.310;2022-12-07T03:23:37;48.53;;;25.55;;
28910;SDS011;16028;42.642;23.310;2022-12-07T03:26:08;50.70;;;25.90;;
28910;SDS011;16028;42.642;23.310;2022-12-07T03:28:40;52.95;;;25.95;;
28910;SDS011;16028;42.642;23.310;2022-12-07T03:31:13;46.22;;;24.65;;
28910;SDS011;16028;42.642;23.310;2022-12-07T03:33:44;51.60;;;26.02;;
28910;SDS011;16028;42.642;23.310;2022-12-07T03:36:17;46.00;;;23.73;;
28910;SDS011;16028;42.642;23.310;2022-12-07T03:38:48;48.60;;;24.70;;
28910;SDS011;16028;42.642;23.310;2022-12-07T03:41:22;45.43;;;24.80;;
28910;SDS011;16028;42.642;23.310;2022-12-07T03:43:51;44.70;;;23.52;;
28910;SDS011;16028;42.642;23.310;2022-12-07T03:46:23;46.53;;;23.52;;
28910;SDS011;16028;42.642;23.310;2022-12-07T03:48:56;46.90;;;24.13;;
28910;SDS011;16028;42.642;23.310;2022-12-07T03:51:32;41.53;;;23.10;;
28910;SDS011;16028;42.642;23.310;2022-12-07T03:54:07;42.65;;;22.70;;
28910;SDS011;16028;42.642;23.310;2022-12-07T03:56:37;45.90;;;24.45;;
28910;SDS011;16028;42.642;23.310;2022-12-07T03:59:06;46.55;;;24.00;;
28910;SDS011;16028;42.642;23.310;2022-12-07T04:01:35;50.28;;;25.48;;
28910;SDS011;16028;42.642;23.310;2022-12-07T04:04:02;45.47;;;24.00;;
28910;SDS011;16028;42.642;23.310;2022-12-07T04:06:28;42.67;;;23.95;;
28910;SDS011;16028;42.642;23.310;2022-12-07T04:08:55;43.03;;;23.10;;
28910;SDS011;16028;42.642;23.310;2022-12-07T04:11:22;42.15;;;23.10;;
28910;SDS011;16028;42.642;23.310;2022-12-07T04:13:49;43.53;;;22.17;;
28910;SDS011;16028;42.642;23.310;2022-12-07T04:16:34;38.65;;;21.90;;
28910;SDS011;16028;42.642;23.310;2022-12-07T04:19:01;37.00;;;20.48;;
28910;SDS011;16028;42.642;23.310;2022-12-07T04:21:28;37.35;;;19.65;;
28910;SDS011;16028;42.642;23.310;2022-12-07T04:23:55;40.55;;;20.90;;
28910;SDS011;16028;42.642;23.310;2022-12-07T04:26:21;33.80;;;19.27;;
28910;SDS011;16028;42.642;23.310;2022-12-07T04:28:48;43.03;;;20.73;;
28910;SDS011;16028;42.642;23.310;2022-12-07T04:31:15;41.40;;;21.38;;
28910;SDS011;16028;42.642;23.310;2022-12-07T04:33:43;40.83;;;21.50;;
28910;SDS011;16028;42.642;23.310;2022-12-07T04:36:10;34.83;;;20.52;;
28910;SDS011;16028;42.642;23.310;2022-12-07T04:38:36;42.33;;;22.25;;
28910;SDS011;16028;42.642;23.310;2022-12-07T04:41:04;46.45;;;23.20;;
28910;SDS011;16028;42.642;23.310;2022-12-07T04:43:32;39.92;;;22.45;;
28910;SDS011;16028;42.642;23.310;2022-12-07T04:45:58;41.40;;;23.17;;
28910;SDS011;16028;42.642;23.310;2022-12-07T04:48:25;39.30;;;21.73;;
28910;SDS011;16028;42.642;23.310;2022-12-07T04:50:54;37.50;;;21.02;;
28910;SDS011;16028;42.642;23.310;2022-12-07T04:53:21;39.83;;;20.98;;
28910;SDS011;16028;42.642;23.310;2022-12-07T04:55:48;39.53;;;21.92;;
28910;SDS011;16028;42.642;23.310;2022-12-07T04:58:15;38.58;;;20.58;;
28910;SDS011;16028;42.642;23.310;2022-12-07T05:00:41;39.05;;;21.05;;
28910;SDS011;16028;42.642;23.310;2022-12-07T05:03:08;34.80;;;19.98;;
28910;SDS011;16028;42.642;23.310;2022-12-07T05:05:35;39.85;;;21.50;;
28910;SDS011;16028;42.642;23.310;2022-12-07T05:08:03;46.60;;;22.70;;
28910;SDS011;16028;42.642;23.310;2022-12-07T05:10:30;37.88;;;20.95;;
28910;SDS011;16028;42.642;23.310;2022-12-07T05:12:57;36.40;;;21.20;;
28910;SDS011;16028;42.642;23.310;2022-12-07T05:15:23;39.03;;;21.20;;
28910;SDS011;16028;42.642;23.310;2022-12-07T05:17:50;35.10;;;20.05;;
28910;SDS011;16028;42.642;23.310;2022-12-07T05:20:17;37.70;;;21.02;;
28910;SDS011;16028;42.642;23.310;2022-12-07T05:22:44;45.17;;;23.08;;
28910;SDS011;16028;42.642;23.310;2022-12-07T05:25:12;44.17;;;23.00;;
28910;SDS011;16028;42.642;23.310;2022-12-07T05:27:39;42.65;;;21.67;;
28910;SDS011;16028;42.642;23.310;2022-12-07T05:30:06;41.13;;;21.75;;
28910;SDS011;16028;42.642;23.310;2022-12-07T05:32:33;77.65;;;36.47;;
28910;SDS011;16028;42.642;23.310;2022-12-07T05:35:00;53.47;;;28.42;;
28910;SDS011;16028;42.642;23.310;2022-12-07T05:37:27;52.20;;;25.52;;
28910;SDS011;16028;42.642;23.310;2022-12-07T05:39:54;46.25;;;25.05;;
28910;SDS011;16028;42.642;23.310;2022-12-07T05:42:22;43.42;;;24.20;;
28910;SDS011;16028;42.642;23.310;2022-12-07T05:44:49;44.78;;;23.45;;
28910;SDS011;16028;42.642;23.310;2022-12-07T05:47:15;47.72;;;25.75;;
28910;SDS011;16028;42.642;23.310;2022-12-07T05:49:42;48.42;;;26.38;;
28910;SDS011;16028;42.642;23.310;2022-12-07T05:52:09;52.53;;;24.08;;
28910;SDS011;16028;42.642;23.310;2022-12-07T05:54:36;44.30;;;23.70;;
28910;SDS011;16028;42.642;23.310;2022-12-07T05:57:03;49.92;;;26.25;;
28910;SDS011;16028;42.642;23.310;2022-12-07T05:59:31;53.97;;;28.52;;
28910;SDS011;16028;42.642;23.310;2022-12-07T06:01:57;49.97;;;26.92;;
28910;SDS011;16028;42.642;23.310;2022-12-07T06:04:26;47.72;;;26.73;;
28910;SDS011;16028;42.642;23.310;2022-12-07T06:06:53;49.40;;;26.10;;
28910;SDS011;16028;42.642;23.310;2022-12-07T06:09:21;53.42;;;27.60;;
28910;SDS011;16028;42.642;23.310;2022-12-07T06:11:49;48.65;;;25.30;;
28910;SDS011;16028;42.642;23.310;2022-12-07T06:14:35;49.38;;;26.65;;
28910;SDS011;16028;42.642;23.310;2022-12-07T06:17:02;49.35;;;26.63;;
28910;SDS011;16028;42.642;23.310;2022-12-07T06:19:29;55.10;;;27.75;;
28910;SDS011;16028;42.642;23.310;2022-12-07T06:21:56;47.13;;;25.23;;
28910;SDS011;16028;42.642;23.310;2022-12-07T06:24:23;49.65;;;25.80;;
28910;SDS011;16028;42.642;23.310;2022-12-07T06:26:50;54.40;;;28.15;;
28910;SDS011;16028;42.642;23.310;2022-12-07T06:29:21;51.38;;;26.63;;
28910;SDS011;16028;42.642;23.310;2022-12-07T06:31:49;55.20;;;28.23;;
28910;SDS011;16028;42.642;23.310;2022-12-07T06:34:17;58.42;;;27.60;;
28910;SDS011;16028;42.642;23.310;2022-12-07T06:36:48;51.35;;;26.88;;
28910;SDS011;16028;42.642;23.310;2022-12-07T06:39:16;56.88;;;29.85;;
28910;SDS011;16028;42.642;23.310;2022-12-07T06:41:46;63.85;;;29.95;;
28910;SDS011;16028;42.642;23.310;2022-12-07T06:44:13;58.15;;;27.27;;
28910;SDS011;16028;42.642;23.310;2022-12-07T06:46:40;55.70;;;27.65;;
28910;SDS011;16028;42.642;23.310;2022-12-07T06:49:09;56.78;;;28.85;;
28910;SDS011;16028;42.642;23.310;2022-12-07T06:51:38;54.08;;;27.38;;
28910;SDS011;16028;42.642;23.310;2022-12-07T06:54:06;62.85;;;29.48;;
28910;SDS011;16028;42.642;23.310;2022-12-07T06:56:33;60.65;;;30.48;;
28910;SDS011;16028;42.642;23.310;2022-12-07T06:59:00;67.53;;;30.63;;
28910;SDS011;16028;42.642;23.310;2022-12-07T07:01:27;63.70;;;30.85;;
28910;SDS011;16028;42.642;23.310;2022-12-07T07:03:54;64.65;;;31.20;;
28910;SDS011;16028;42.642;23.310;2022-12-07T07:06:23;69.28;;;30.73;;
28910;SDS011;16028;42.642;23.310;2022-12-07T07:08:49;56.05;;;28.85;;
28910;SDS011;16028;42.642;23.310;2022-12-07T07:11:16;64.97;;;27.30;;
28910;SDS011;16028;42.642;23.310;2022-12-07T07:13:43;56.80;;;28.92;;
28910;SDS011;16028;42.642;23.310;2022-12-07T07:16:12;61.72;;;31.80;;
28910;SDS011;16028;42.642;23.310;2022-12-07T07:18:39;67.65;;;31.70;;
28910;SDS011;16028;42.642;23.310;2022-12-07T07:21:06;68.38;;;33.50;;
28910;SDS011;16028;42.642;23.310;2022-12-07T07:23:34;67.25;;;34.42;;
28910;SDS011;16028;42.642;23.310;2022-12-07T07:26:01;76.13;;;37.85;;
28910;SDS011;16028;42.642;23.310;2022-12-07T07:28:27;68.38;;;33.40;;
28910;SDS011;16028;42.642;23.310;2022-12-07T07:30:54;76.35;;;32.85;;
28910;SDS011;16028;42.642;23.310;2022-12-07T07:33:21;92.88;;;44.15;;
28910;SDS011;16028;42.642;23.310;2022-12-07T07:35:48;96.05;;;42.85;;
28910;SDS011;16028;42.642;23.310;2022-12-07T07:38:14;81.00;;;40.20;;
28910;SDS011;16028;42.642;23.310;2022-12-07T07:40:42;79.10;;;36.95;;
28910;SDS011;16028;42.642;23.310;2022-12-07T07:43:09;66.45;;;33.10;;
28910;SDS011;16028;42.642;23.310;2022-12-07T07:45:36;70.15;;;34.88;;
28910;SDS011;16028;42.642;23.310;2022-12-07T07:48:02;73.93;;;37.58;;
28910;SDS011;16028;42.642;23.310;2022-12-07T07:50:29;72.28;;;36.00;;
28910;SDS011;16028;42.642;23.310;2022-12-07T07:52:56;68.30;;;32.95;;
28910;SDS011;16028;42.642;23.310;2022-12-07T07:55:23;62.38;;;31.35;;
28910;SDS011;16028;42.642;23.310;2022-12-07T07:57:52;56.60;;;28.92;;
28910;SDS011;16028;42.642;23.310;2022-12-07T08:00:18;58.53;;;29.23;;
28910;SDS011;16028;42.642;23.310;2022-12-07T08:02:46;56.47;;;28.30;;
28910;SDS011;16028;42.642;23.310;2022-12-07T08:05:15;50.83;;;26.90;;
28910;SDS011;16028;42.642;23.310;2022-12-07T08:07:42;52.42;;;25.20;;
28910;SDS011;16028;42.642;23.310;2022-12-07T08:10:10;61.10;;;30.10;;
28910;SDS011;16028;42.642;23.310;2022-12-07T08:12:39;54.90;;;27.27;;
28910;SDS011;16028;42.642;23.310;2022-12-07T08:15:29;56.08;;;28.00;;
28910;SDS011;16028;42.642;23.310;2022-12-07T08:17:56;47.58;;;24.27;;
28910;SDS011;16028;42.642;23.310;2022-12-07T08:20:23;49.28;;;25.70;;
28910;SDS011;16028;42.642;23.310;2022-12-07T08:22:50;45.80;;;24.98;;
28910;SDS011;16028;42.642;23.310;2022-12-07T08:25:17;47.03;;;23.33;;
28910;SDS011;16028;42.642;23.310;2022-12-07T08:27:44;47.58;;;25.42;;
28910;SDS011;16028;42.642;23.310;2022-12-07T08:30:11;48.35;;;26.02;;
28910;SDS011;16028;42.642;23.310;2022-12-07T08:32:39;52.55;;;26.98;;
28910;SDS011;16028;42.642;23.310;2022-12-07T08:35:06;53.13;;;27.08;;
28910;SDS011;16028;42.642;23.310;2022-12-07T08:37:34;54.22;;;28.35;;
28910;SDS011;16028;42.642;23.310;2022-12-07T08:40:01;59.78;;;31.35;;
28910;SDS011;16028;42.642;23.310;2022-12-07T08:42:28;55.72;;;30.45;;
28910;SDS011;16028;42.642;23.310;2022-12-07T08:45:02;56.60;;;28.60;;
28910;SDS011;16028;42.642;23.310;2022-12-07T08:47:30;54.55;;;29.20;;
28910;SDS011;16028;42.642;23.310;2022-12-07T08:49:59;56.10;;;28.33;;
28910;SDS011;16028;42.642;23.310;2022-12-07T08:52:28;56.67;;;28.23;;
28910;SDS011;16028;42.642;23.310;2022-12-07T08:54:56;48.38;;;25.85;;
28910;SDS011;16028;42.642;23.310;2022-12-07T08:57:23;62.58;;;30.98;;
28910;SDS011;16028;42.642;23.310;2022-12-07T08:59:50;55.10;;;29.27;;
28910;SDS011;16028;42.642;23.310;2022-12-07T09:02:17;49.53;;;26.42;;
28910;SDS011;16028;42.642;23.310;2022-12-07T09:04:43;57.35;;;26.08;;
28910;SDS011;16028;42.642;23.310;2022-12-07T09:07:11;57.92;;;26.73;;
28910;SDS011;16028;42.642;23.310;2022-12-07T09:09:38;59.67;;;26.15;;
28910;SDS011;16028;42.642;23.310;2022-12-07T09:12:05;51.30;;;24.95;;
28910;SDS011;16028;42.642;23.310;2022-12-07T09:14:32;55.78;;;25.58;;
28910;SDS011;16028;42.642;23.310;2022-12-07T09:17:04;50.55;;;24.23;;
28910;SDS011;16028;42.642;23.310;2022-12-07T09:19:32;60.55;;;25.63;;
28910;SDS011;16028;42.642;23.310;2022-12-07T09:21:58;59.08;;;25.50;;
28910;SDS011;16028;42.642;23.310;2022-12-07T09:24:27;54.25;;;26.55;;
28910;SDS011;16028;42.642;23.310;2022-12-07T09:26:54;50.58;;;25.90;;
28910;SDS011;16028;42.642;23.310;2022-12-07T09:29:20;46.92;;;24.77;;
28910;SDS011;16028;42.642;23.310;2022-12-07T09:31:47;53.42;;;24.80;;
28910;SDS011;16028;42.642;23.310;2022-12-07T09:34:14;56.58;;;24.45;;
28910;SDS011;16028;42.642;23.310;2022-12-07T09:36:41;52.13;;;24.63;;
28910;SDS011;16028;42.642;23.310;2022-12-07T09:39:08;46.17;;;23.25;;
28910;SDS011;16028;42.642;23.310;2022-12-07T09:41:38;47.90;;;24.45;;
28910;SDS011;16028;42.642;23.310;2022-12-07T09:44:09;64.22;;;27.15;;
28910;SDS011;16028;42.642;23.310;2022-12-07T09:46:39;60.88;;;27.90;;
28910;SDS011;16028;42.642;23.310;2022-12-07T09:49:09;53.42;;;27.00;;
28910;SDS011;16028;42.642;23.310;2022-12-07T09:51:39;51.97;;;24.48;;
28910;SDS011;16028;42.642;23.310;2022-12-07T09:54:07;53.25;;;26.67;;
28910;SDS011;16028;42.642;23.310;2022-12-07T09:56:39;58.63;;;28.02;;
28910;SDS011;16028;42.642;23.310;2022-12-07T09:59:09;53.05;;;28.10;;
28910;SDS011;16028;42.642;23.310;2022-12-07T10:01:41;53.00;;;26.88;;
28910;SDS011;16028;42.642;23.310;2022-12-07T10:04:09;51.85;;;26.17;;
28910;SDS011;16028;42.642;23.310;2022-12-07T10:06:41;51.75;;;25.13;;
28910;SDS011;16028;42.642;23.310;2022-12-07T10:09:11;41.85;;;22.95;;
28910;SDS011;16028;42.642;23.310;2022-12-07T10:14:32;58.05;;;23.17;;
28910;SDS011;16028;42.642;23.310;2022-12-07T10:17:01;43.78;;;23.52;;
28910;SDS011;16028;42.642;23.310;2022-12-07T10:19:29;48.00;;;25.20;;
28910;SDS011;16028;42.642;23.310;2022-12-07T10:22:02;43.95;;;24.10;;
28910;SDS011;16028;42.642;23.310;2022-12-07T10:24:31;54.70;;;27.08;;
28910;SDS011;16028;42.642;23.310;2022-12-07T10:26:58;54.53;;;25.70;;
28910;SDS011;16028;42.642;23.310;2022-12-07T10:29:29;49.97;;;25.55;;
28910;SDS011;16028;42.642;23.310;2022-12-07T10:31:58;52.35;;;25.92;;
28910;SDS011;16028;42.642;23.310;2022-12-07T10:34:27;52.38;;;26.10;;
28910;SDS011;16028;42.642;23.310;2022-12-07T10:37:07;50.80;;;25.85;;
28910;SDS011;16028;42.642;23.310;2022-12-07T10:39:42;50.25;;;27.42;;
28910;SDS011;16028;42.642;23.310;2022-12-07T10:42:15;60.63;;;27.85;;
28910;SDS011;16028;42.642;23.310;2022-12-07T10:44:46;55.33;;;28.45;;
28910;SDS011;16028;42.642;23.310;2022-12-07T10:47:17;62.03;;;31.23;;
28910;SDS011;16028;42.642;23.310;2022-12-07T10:49:54;62.55;;;30.42;;
28910;SDS011;16028;42.642;23.310;2022-12-07T10:52:37;54.15;;;29.83;;
28910;SDS011;16028;42.642;23.310;2022-12-07T10:55:19;58.70;;;27.60;;
28910;SDS011;16028;42.642;23.310;2022-12-07T10:58:05;50.30;;;25.38;;
28910;SDS011;16028;42.642;23.310;2022-12-07T11:00:50;47.42;;;23.08;;
28910;SDS011;16028;42.642;23.310;2022-12-07T11:03:40;48.35;;;24.17;;
28910;SDS011;16028;42.642;23.310;2022-12-07T11:06:17;39.42;;;20.35;;
28910;SDS011;16028;42.642;23.310;2022-12-07T11:08:55;32.08;;;15.45;;
28910;SDS011;16028;42.642;23.310;2022-12-07T11:11:32;20.65;;;8.85;;
28910;SDS011;16028;42.642;23.310;2022-12-07T11:14:03;24.52;;;12.43;;
28910;SDS011;16028;42.642;23.310;2022-12-07T11:16:45;28.00;;;13.93;;
28910;SDS011;16028;42.642;23.310;2022-12-07T11:22:18;29.00;;;12.77;;
28910;SDS011;16028;42.642;23.310;2022-12-07T11:24:53;23.75;;;12.05;;
28910;SDS011;16028;42.642;23.310;2022-12-07T11:27:29;16.13;;;10.30;;
28910;SDS011;16028;42.642;23.310;2022-12-07T11:30:08;20.80;;;10.55;;
28910;SDS011;16028;42.642;23.310;2022-12-07T11:32:44;26.75;;;13.82;;
28910;SDS011;16028;42.642;23.310;2022-12-07T11:35:22;30.45;;;13.75;;
28910;SDS011;16028;42.642;23.310;2022-12-07T11:37:56;26.67;;;14.02;;
28910;SDS011;16028;42.642;23.310;2022-12-07T11:40:27;34.40;;;15.20;;
28910;SDS011;16028;42.642;23.310;2022-12-07T11:43:00;32.83;;;14.98;;
28910;SDS011;16028;42.642;23.310;2022-12-07T11:45:31;26.13;;;14.95;;
28910;SDS011;16028;42.642;23.310;2022-12-07T11:48:01;33.72;;;14.63;;
28910;SDS011;16028;42.642;23.310;2022-12-07T11:50:32;36.60;;;16.13;;
28910;SDS011;16028;42.642;23.310;2022-12-07T11:53:03;31.45;;;15.07;;
28910;SDS011;16028;42.642;23.310;2022-12-07T11:55:40;27.58;;;13.05;;
28910;SDS011;16028;42.642;23.310;2022-12-07T11:58:20;23.58;;;11.52;;
28910;SDS011;16028;42.642;23.310;2022-12-07T12:01:02;19.23;;;9.85;;
28910;SDS011;16028;42.642;23.310;2022-12-07T12:03:42;20.92;;;9.70;;
28910;SDS011;16028;42.642;23.310;2022-12-07T12:06:11;22.95;;;11.27;;
28910;SDS011;16028;42.642;23.310;2022-12-07T12:08:39;26.70;;;13.80;;
28910;SDS011;16028;42.642;23.310;2022-12-07T12:11:13;23.55;;;12.25;;
28910;SDS011;16028;42.642;23.310;2022-12-07T12:14:02;22.65;;;11.48;;
28910;SDS011;16028;42.642;23.310;2022-12-07T12:16:50;23.48;;;11.15;;
28910;SDS011;16028;42.642;23.310;2022-12-07T12:19:30;22.10;;;10.65;;
28910;SDS011;16028;42.642;23.310;2022-12-07T12:22:04;21.23;;;10.95;;
28910;SDS011;16028;42.642;23.310;2022-12-07T12:24:38;28.75;;;12.93;;
28910;SDS011;16028;42.642;23.310;2022-12-07T12:27:07;28.90;;;12.90;;
28910;SDS011;16028;42.642;23.310;2022-12-07T12:29:41;29.80;;;13.13;;
28910;SDS011;16028;42.642;23.310;2022-12-07T12:32:13;27.38;;;13.20;;
28910;SDS011;16028;42.642;23.310;2022-12-07T12:37:41;39.83;;;16.73;;
28910;SDS011;16028;42.642;23.310;2022-12-07T12:43:26;37.45;;;15.02;;
28910;SDS011;16028;42.642;23.310;2022-12-07T12:55:19;34.88;;;17.70;;
28910;SDS011;16028;42.642;23.310;2022-12-07T13:06:58;28.95;;;14.93;;
28910;SDS011;16028;42.642;23.310;2022-12-07T13:09:25;28.75;;;14.48;;
28910;SDS011;16028;42.642;23.310;2022-12-07T13:11:59;39.38;;;15.50;;
28910;SDS011;16028;42.642;23.310;2022-12-07T13:14:52;31.63;;;15.50;;
28910;SDS011;16028;42.642;23.310;2022-12-07T13:20:48;38.40;;;14.40;;
28910;SDS011;16028;42.642;23.310;2022-12-07T13:23:21;40.45;;;16.75;;
28910;SDS011;16028;42.642;23.310;2022-12-07T13:28:43;38.42;;;15.45;;
28910;SDS011;16028;42.642;23.310;2022-12-07T13:31:23;37.40;;;17.13;;
28910;SDS011;16028;42.642;23.310;2022-12-07T13:33:58;34.30;;;14.50;;
28910;SDS011;16028;42.642;23.310;2022-12-07T13:36:26;22.90;;;10.98;;
28910;SDS011;16028;42.642;23.310;2022-12-07T13:38:57;30.63;;;14.95;;
28910;SDS011;16028;42.642;23.310;2022-12-07T13:41:26;23.70;;;12.15;;
28910;SDS011;16028;42.642;23.310;2022-12-07T13:43:58;27.85;;;12.57;;
28910;SDS011;16028;42.642;23.310;2022-12-07T13:46:31;33.78;;;13.18;;
28910;SDS011;16028;42.642;23.310;2022-12-07T13:52:54;25.63;;;12.00;;
28910;SDS011;16028;42.642;23.310;2022-12-07T13:55:22;26.90;;;13.52;;
28910;SDS011;16028;42.642;23.310;2022-12-07T13:57:49;35.92;;;13.32;;
28910;SDS011;16028;42.642;23.310;2022-12-07T14:00:23;38.33;;;18.23;;
28910;SDS011;16028;42.642;23.310;2022-12-07T14:02:55;30.25;;;13.73;;
28910;SDS011;16028;42.642;23.310;2022-12-07T14:05:25;28.25;;;13.88;;
28910;SDS011;16028;42.642;23.310;2022-12-07T14:07:55;33.90;;;13.57;;
28910;SDS011;16028;42.642;23.310;2022-12-07T14:10:24;33.72;;;14.07;;
28910;SDS011;16028;42.642;23.310;2022-12-07T14:12:52;27.63;;;13.15;;
28910;SDS011;16028;42.642;23.310;2022-12-07T14:15:19;29.90;;;14.45;;
28910;SDS011;16028;42.642;23.310;2022-12-07T14:17:49;28.30;;;12.27;;
28910;SDS011;16028;42.642;23.310;2022-12-07T14:20:31;24.42;;;14.68;;
28910;SDS011;16028;42.642;23.310;2022-12-07T14:22:59;28.15;;;14.18;;
28910;SDS011;16028;42.642;23.310;2022-12-07T14:25:43;29.38;;;15.20;;
28910;SDS011;16028;42.642;23.310;2022-12-07T14:28:24;26.88;;;15.65;;
28910;SDS011;16028;42.642;23.310;2022-12-07T14:30:53;31.90;;;15.35;;
28910;SDS011;16028;42.642;23.310;2022-12-07T14:33:20;29.10;;;14.02;;
28910;SDS011;16028;42.642;23.310;2022-12-07T14:35:48;36.45;;;13.38;;
28910;SDS011;16028;42.642;23.310;2022-12-07T14:38:20;31.33;;;13.68;;
28910;SDS011;16028;42.642;23.310;2022-12-07T14:40:46;34.75;;;15.50;;
28910;SDS011;16028;42.642;23.310;2022-12-07T14:43:15;40.58;;;16.95;;
28910;SDS011;16028;42.642;23.310;2022-12-07T14:45:43;51.20;;;18.73;;
28910;SDS011;16028;42.642;23.310;2022-12-07T14:48:11;40.05;;;19.10;;
28910;SDS011;16028;42.642;23.310;2022-12-07T14:50:41;40.22;;;19.13;;
28910;SDS011;16028;42.642;23.310;2022-12-07T14:53:12;47.15;;;21.65;;
28910;SDS011;16028;42.642;23.310;2022-12-07T14:55:40;46.92;;;20.83;;
28910;SDS011;16028;42.642;23.310;2022-12-07T14:58:09;35.60;;;16.00;;
28910;SDS011;16028;42.642;23.310;2022-12-07T15:00:40;36.78;;;15.98;;
28910;SDS011;16028;42.642;23.310;2022-12-07T15:03:07;38.83;;;16.45;;
28910;SDS011;16028;42.642;23.310;2022-12-07T15:05:35;36.00;;;16.42;;
28910;SDS011;16028;42.642;23.310;2022-12-07T15:08:03;45.05;;;16.38;;
28910;SDS011;16028;42.642;23.310;2022-12-07T15:10:32;64.93;;;29.42;;
28910;SDS011;16028;42.642;23.310;2022-12-07T15:13:03;56.55;;;27.63;;